createdAt,value
2023-04-18T04:40:56.219Z,13.95
2023-04-18T04:44:12.576Z,13.72
2023-04-18T04:47:26.915Z,13.97
2023-04-18T04:50:42.542Z,14.06
2023-04-18T04:53:56.717Z,14.21
2023-04-18T04:57:12.409Z,14.18
2023-04-18T05:00:26.819Z,14.08
2023-04-18T05:03:42.528Z,14.12
2023-04-18T05:06:58.762Z,13.85
2023-04-18T05:10:24.274Z,13.95
2023-04-18T05:13:49.492Z,13.92
2023-04-18T05:20:59.442Z,14.34
2023-04-18T05:24:14.053Z,14.40
2023-04-18T05:27:28.780Z,14.32
2023-04-18T05:30:51.847Z,14.53
2023-04-18T05:34:06.736Z,14.66
2023-04-18T05:37:22.644Z,14.24
2023-04-18T05:41:13.882Z,14.32
2023-04-18T05:44:28.354Z,13.94
2023-04-18T05:48:09.278Z,14.47
2023-04-18T05:51:50.893Z,14.32
2023-04-18T05:55:09.918Z,14.43
2023-04-18T05:58:46.738Z,14.71
2023-04-18T06:02:07.961Z,14.42
2023-04-18T06:09:12.791Z,14.78
2023-04-18T06:12:33.015Z,14.67
2023-04-18T06:19:21.341Z,14.34
2023-04-18T06:22:51.255Z,14.46
2023-04-18T06:26:21.028Z,14.66
2023-04-18T06:30:07.712Z,14.63
2023-04-18T06:33:30.799Z,14.79
2023-04-18T06:37:03.780Z,14.42
2023-04-18T06:40:44.233Z,14.70
2023-04-18T06:44:03.634Z,15.11
2023-04-18T06:47:33.812Z,15.00
2023-04-18T06:51:03.768Z,14.72
2023-04-18T06:54:38.302Z,15.05
2023-04-18T06:58:04.345Z,15.13
2023-04-18T07:01:31.495Z,15.15
2023-04-18T07:05:10.373Z,15.18
2023-04-18T07:12:14.205Z,15.56
2023-04-18T07:15:59.465Z,15.76
2023-04-18T07:19:20.360Z,15.75
2023-04-18T07:22:56.886Z,16.17
2023-04-18T07:26:17.646Z,16.61
2023-04-18T07:29:32.236Z,16.92
2023-04-18T07:33:37.490Z,17.30
2023-04-18T07:37:56.337Z,17.10
2023-04-18T07:41:13.856Z,16.57
2023-04-18T07:44:57.225Z,16.74
2023-04-18T07:49:11.445Z,16.91
2023-04-18T07:52:52.846Z,16.62
2023-04-18T07:56:21.221Z,17.14
2023-04-18T07:59:53.352Z,16.96
2023-04-18T08:03:32.853Z,17.07
2023-04-18T08:07:18.341Z,16.97
2023-04-18T08:14:40.986Z,17.72
2023-04-18T08:18:17.543Z,17.61
2023-04-18T08:21:31.822Z,17.35
2023-04-18T08:25:05.433Z,17.52
2023-04-18T08:28:50.370Z,17.86
2023-04-18T08:32:24.250Z,17.56
2023-04-18T08:35:42.448Z,17.37
2023-04-18T08:39:03.855Z,17.63
2023-04-18T08:43:03.194Z,17.77
2023-04-18T08:46:43.143Z,17.54
2023-04-18T08:49:59.859Z,18.43
2023-04-18T08:53:32.945Z,18.24
2023-04-18T08:56:50.713Z,18.69
2023-04-18T09:00:23.920Z,18.37
2023-04-18T09:03:55.357Z,18.35
2023-04-18T09:07:43.134Z,18.77
2023-04-18T09:11:42.978Z,18.45
2023-04-18T09:15:07.779Z,18.40
2023-04-18T09:18:39.645Z,18.65
2023-04-18T09:22:04.340Z,18.53
2023-04-18T09:25:55.804Z,18.82
2023-04-18T09:29:11.212Z,18.56
2023-04-18T09:32:29.898Z,18.79
2023-04-18T09:36:19.443Z,18.86
2023-04-18T09:40:08.977Z,18.75
2023-04-18T09:43:44.984Z,18.53
2023-04-18T09:47:07.527Z,18.97
2023-04-18T09:50:52.528Z,19.00
2023-04-18T09:54:25.860Z,18.62
2023-04-18T09:58:19.173Z,19.14
2023-04-18T10:01:56.764Z,19.76
2023-04-18T10:05:41.247Z,19.52
2023-04-18T10:09:38.745Z,19.06
2023-04-18T10:13:05.131Z,18.73
2023-04-18T10:16:34.104Z,18.64
2023-04-18T10:20:21.336Z,18.90
2023-04-18T10:23:47.342Z,19.08
2023-04-18T10:27:11.198Z,19.91
2023-04-18T10:31:13.316Z,19.75
2023-04-18T10:43:10.644Z,20.15
2023-04-18T10:46:53.581Z,20.25
2023-04-18T10:50:41.501Z,20.20
2023-04-18T10:54:03.084Z,19.50
2023-04-18T10:57:33.754Z,19.73
2023-04-18T11:01:18.148Z,20.14
2023-04-18T11:04:47.174Z,20.11
2023-04-18T11:08:16.079Z,19.99
2023-04-18T11:11:44.568Z,19.61
2023-04-18T11:15:31.161Z,19.76
2023-04-18T11:19:07.002Z,19.79
2023-04-18T11:22:32.156Z,19.77
2023-04-18T11:26:10.096Z,19.31
2023-04-18T11:30:04.424Z,19.99
2023-04-18T11:33:30.287Z,19.98
2023-04-18T11:40:40.776Z,19.98
2023-04-18T11:43:55.413Z,20.40
2023-04-18T11:47:26.962Z,20.29
2023-04-18T11:50:56.213Z,19.89
2023-04-18T11:54:58.164Z,20.04
2023-04-18T12:02:23.884Z,19.51
2023-04-18T12:05:43.113Z,19.39
2023-04-18T12:09:33.337Z,19.56
2023-04-18T12:17:09.393Z,19.74
2023-04-18T12:20:34.050Z,19.80
2023-04-18T12:24:09.220Z,20.48
2023-04-18T12:27:27.516Z,20.16
2023-04-18T12:35:02.256Z,20.26
2023-04-18T12:42:46.289Z,19.99
2023-04-18T12:46:23.587Z,19.55
2023-04-18T12:49:50.164Z,19.53
2023-04-18T12:53:05.971Z,20.04
2023-04-18T12:56:20.261Z,19.80
2023-04-18T12:59:40.170Z,19.53
2023-04-18T13:10:39.225Z,20.49
2023-04-18T13:14:13.793Z,20.54
2023-04-18T13:17:49.244Z,20.45
2023-04-18T13:21:49.656Z,19.81
2023-04-18T13:25:07.939Z,19.39
2023-04-18T13:28:46.378Z,20.04
2023-04-18T13:32:10.450Z,20.04
2023-04-18T13:35:38.603Z,19.53
2023-04-18T13:39:01.281Z,19.67
2023-04-18T13:42:31.145Z,20.12
2023-04-18T13:46:06.855Z,19.82
2023-04-18T13:49:30.731Z,19.66
2023-04-18T13:52:49.865Z,19.59
2023-04-18T13:56:20.445Z,19.49
2023-04-18T14:03:29.603Z,19.21
2023-04-18T14:06:50.362Z,19.14
2023-04-18T14:10:17.482Z,19.26
2023-04-18T14:13:51.060Z,19.77
2023-04-18T14:17:18.244Z,19.61
2023-04-18T14:21:00.839Z,19.61
2023-04-18T14:24:18.011Z,19.52
2023-04-18T14:28:11.468Z,19.47
2023-04-18T14:31:38.134Z,19.82
2023-04-18T14:35:04.489Z,19.78
2023-04-18T14:38:28.720Z,19.21
2023-04-18T14:45:22.258Z,19.29
2023-04-18T14:48:39.258Z,19.31
2023-04-18T14:51:53.606Z,19.63
2023-04-18T14:55:12.360Z,18.99
2023-04-18T14:58:26.680Z,19.39
2023-04-18T15:01:43.915Z,19.32
2023-04-18T15:05:00.251Z,19.46
2023-04-18T15:08:14.757Z,19.28
2023-04-18T15:11:29.195Z,19.01
2023-04-18T15:14:43.417Z,19.68
2023-04-18T15:17:58.202Z,19.19
2023-04-18T15:21:13.986Z,19.20
2023-04-18T15:24:28.244Z,19.32
2023-04-18T15:27:42.599Z,19.44
2023-04-18T15:30:56.894Z,19.68
2023-04-18T15:34:12.029Z,19.84
2023-04-18T15:37:28.673Z,19.52
2023-04-18T15:40:45.597Z,19.72
2023-04-18T15:44:00.489Z,19.71
2023-04-18T15:47:14.908Z,19.50
2023-04-18T15:50:36.415Z,19.93
2023-04-18T15:53:58.593Z,19.63
2023-04-18T15:57:13.348Z,19.84
2023-04-18T16:00:31.114Z,19.59
2023-04-18T16:26:25.066Z,19.91
2023-04-18T16:29:40.693Z,19.91
2023-04-18T16:32:55.671Z,19.49
2023-04-18T16:40:41.912Z,19.13
